Armuchee, GA

10:14 AM EDT on September 22, 2014 (GMT -0400)
Russell | Change Station
CLOSE
Current Station
Airport
Location: Rome,
Elevation: 643 ft
Nearby Weather Stations

Elev 643 ft 34.35 °N, 85.16 °W | Updated 21 minutes ago

Clear
Clear
69 °F
Feels Like 69 °F
N
10
Wind Variable Wind from North

Today
High -- | Low -- °F
--% Chance of Precip.
Yesterday
High -- | Low -- °F
Precip. -- in
7:28 AM 7:37 PM
Waning Crescent, 3% visible
Pressure 30.07 in
Visibility 10.0 miles
Clouds Clear
Dew Point 52 °F
Humidity 54%
Rainfall 0.00 in
Snow Depth Not available.
UV 3 out of 12
Pollen 6.60 out of 12
Air Quality Not available.
Flu Activity Not available.
METAR KRMG 221353Z AUTO 01009KT 10SM CLR 21/11 A3009 RMK AO2 SLP181 T02060111

More Conditions Fewer Conditions

Pressure 30.07 in
Visibility 10.0 miles
Clouds Clear
Dew Point 52 °F
Humidity 54%
Rainfall 0.00 in
Snow Depth Not available.
UV 3 out of 12
Pollen 6.60 out of 12
Air Quality Not available.
Flu Activity Not available.
METAR KRMG 221353Z AUTO 01009KT 10SM CLR 21/11 A3009 RMK AO2 SLP181 T02060111

More Conditions Fewer Conditions

10-Day Weather Forecast

Almanac

Astronomy

Sep. 22, 2014 Rise Set
Actual Time 7:28 AM EDT 7:37 PM EDT
Civil Twilight 7:03 AM EDT 8:02 PM EDT
Nautical Twilight 6:34 AM EDT 8:31 PM EDT
Astronomical Twilight 6:04 AM EDT 9:01 PM EDT
Moon 5:59 AM EDT 6:43 PM EDT
Length of Visible Light 12h 58m
Length of Day
12h 08m
Tomorrow will be 2m 8s shorter.
Waning Crescent, 3% of the Moon is Illuminated
Today
Waning Crescent
Sep 24
New
Oct 1
First Quarter
Oct 8
Full
Oct 15
Last Quarter

Today's Extremes

State Highs State Lows

Community

WunderPhotos

Upload Photos

1,755,444 photos uploaded!

WunderBlogs® & News

By Dr. Jeff Masters
Director of Meteorology, Weather Underground
By Kari Strenfel
Meteorologist, Weather Underground
By Christopher C. Burt
Weather Historian, Weather Underground
September 22, 2014
September 22, 2014
September 22, 2014

Nearby

Snow Depth

Station Depth Elevation
No new snow has been reported.

Earthquake Activity

City Distance Mag. Time & Date
Sweetwater, Tennessee 93 miles 2.5 3:54 PM EDT
2014-09-20
Minimum magnitude displayed is 2.5.

Coastal Water Temperatures

Place Temperature
No Stations Reporting

Nearby Weather Stations